HOURLY OBS INDEX

078

Wimmera - north

KELLALAC (WARRACKNABEAL AIRPORT)

Site: 078018
Alt: 118.3m
48km NNE of HORSHAM


  Time     Wind        Temp  DP   Baro     Rain since   Rain past  Vis(m), Cloud(base in m), Weather
  local        km/h                         9am  last   hr   10m    
Sun 18:00  WSW 13/ 17  10.6  6.6  1028.6    0.0   0.0   0.0   0.0   ----- 
Sun 18:30  WSW 13/ 19  10.4  7.3  1028.9    0.0   0.0   0.0   0.0   ----- 
Sun 19:00  WSW 11/ 15   9.7  7.6  1029.1    0.0   0.0   0.0   0.0   ----- 
Sun 19:30  WSW 13/ 17   9.3  6.9  1029.3    0.0   0.0   0.0   0.0   ----- 
Sun 20:00   SW 13/ 17   8.6  6.2  1029.6    0.0   0.0   0.0   0.0   ----- 
Sun 20:30   SW 13/ 15   8.5  6.5  1029.7    0.0   0.0   0.0   0.0   ----- 
Sun 21:00   SW 15/ 19   8.6  6.7  1029.8    0.0   0.0   0.0   0.0   ----- 
Sun 21:30   SW 11/ 13   8.9  6.9  1030.1    0.0   0.0   0.0   0.0   ----- 
Sun 22:00   SW 11/ 15   9.3  6.7  1030.2    0.0   0.0   0.0   0.0   ----- 
Sun 22:30   SW 13/ 15   9.6  6.7  1030.3    0.0   0.0   0.0   0.0   ----- 
Sun 23:00  SSW 19/ 26   9.7  6.8  1030.7    0.0   0.0   0.0   0.0   ----- 
Sun 23:30  SSW 20/ 24   9.2  7.5  1030.8    0.0   0.0   0.0   0.0   ----- 

NHILL AERODROME

Site: 078015
Alt: 138.9m
38km WNW of DIMBOOLA


  Time     Wind        Temp  DP   Baro     Rain since   Rain past  Vis(m), Cloud(base in m), Weather
  local        km/h                         9am  last   hr   10m    
Sun 18:00    S 13/ 15   9.9  5.7  1029.5    0.0   0.0   0.0   0.0   ----- 
Sun 18:30    S 11/ 17   9.8  5.8  1029.7    0.0   0.0   0.0   0.0   ----- 
Sun 19:00  SSW 11/ 13   9.7  6.1  1029.9    0.0   0.0   0.0   0.0   ----- 
Sun 19:30  SSW 17/ 20   9.8  5.8  1030.0    0.0   0.0   0.0   0.0   ----- 
Sun 20:00    S 13/ 17   9.5  5.3  1030.4    0.0   0.0   0.0   0.0   ----- 
Sun 20:30  SSW 13/ 15   9.4  5.4  1030.4    0.0   0.0   0.0   0.0   ----- 
Sun 21:00  SSW 13/ 17   9.4  5.2  1030.6    0.0   0.0   0.0   0.0   ----- 
Sun 21:30  SSW 15/ 19   9.2  5.2  1030.8    0.0   0.0   0.0   0.0   ----- 
Sun 22:00    S 15/ 22   9.2  5.0  1030.8    0.0   0.0   0.0   0.0   ----- 
Sun 22:30    S 15/ 20   9.0  5.0  1031.0    0.0   0.0   0.0   0.0   ----- 
Sun 23:00  SSW 15/ 19   9.0  4.8  1031.3    0.0   0.0   0.0   0.0   ----- 
Sun 23:30    S 13/ 19   9.0  4.6  1031.4    0.0   0.0   0.0   0.0   -----